Time;durP1;ratioP1;P1;durP2;ratioP2;P2;SDS_P1;SDS_P2;PMS_P1;PMS_P2;Temp;Humidity;BMP_temperature;BMP_pressure;BME280_temperature;BME280_humidity;BME280_pressure;Samples;Min_cycle;Max_cycle;Signal;HPM_P1;HPM_P2
2022/11/19 00:00:54;;;;;;;2.78;1.40;;;8.50;82.30;;;;;;5037597;28;20563;-61
2022/11/19 00:03:21;;;;;;;2.83;1.55;;;8.50;82.40;;;;;;5036956;28;20037;-61
2022/11/19 00:05:48;;;;;;;1.83;1.48;;;8.50;82.40;;;;;;5036330;28;20044;-60
2022/11/19 00:08:17;;;;;;;2.67;1.63;;;8.40;82.30;;;;;;5036750;28;20496;-62
2022/11/19 00:10:43;;;;;;;4.28;1.60;;;8.40;82.40;;;;;;5038318;28;20033;-61
2022/11/19 00:13:09;;;;;;;3.25;1.75;;;8.40;82.40;;;;;;5037732;28;20034;-60
2022/11/19 00:15:36;;;;;;;3.22;2.00;;;8.30;82.40;;;;;;5038690;28;20033;-60
2022/11/19 00:18:03;;;;;;;2.50;1.70;;;8.30;82.40;;;;;;5038609;28;20049;-60
2022/11/19 00:20:29;;;;;;;3.53;1.70;;;8.30;82.50;;;;;;5038240;28;20121;-60
2022/11/19 00:22:56;;;;;;;5.00;1.85;;;8.30;82.60;;;;;;5035571;28;20496;-60
2022/11/19 00:25:23;;;;;;;4.38;1.50;;;8.20;82.70;;;;;;5037670;28;20045;-60
2022/11/19 00:27:49;;;;;;;3.85;1.77;;;8.20;82.70;;;;;;5036360;28;20073;-62
2022/11/19 00:30:15;;;;;;;3.90;1.85;;;8.20;82.80;;;;;;5037163;28;20543;-61
2022/11/19 00:32:41;;;;;;;3.72;1.83;;;8.10;82.70;;;;;;5035400;28;20041;-60
2022/11/19 00:35:07;;;;;;;2.80;1.70;;;8.10;82.80;;;;;;5034203;28;20416;-61
2022/11/19 00:37:33;;;;;;;3.95;1.70;;;8.10;82.90;;;;;;5036510;28;20076;-61
2022/11/19 00:39:58;;;;;;;4.82;1.80;;;8.10;82.90;;;;;;5036747;28;20037;-61
2022/11/19 00:42:24;;;;;;;4.68;2.00;;;8.10;83.00;;;;;;5035280;28;20164;-62
2022/11/19 00:44:49;;;;;;;1.95;1.60;;;8.10;83.20;;;;;;5034667;28;20110;-61
2022/11/19 00:47:15;;;;;;;5.38;1.58;;;8.00;83.10;;;;;;5036809;28;20033;-61
2022/11/19 00:49:41;;;;;;;2.63;1.60;;;8.00;83.20;;;;;;5037859;28;20025;-60
2022/11/19 00:52:07;;;;;;;2.75;1.40;;;8.00;83.20;;;;;;5037043;28;20049;-60
2022/11/19 00:54:33;;;;;;;2.35;1.65;;;8.00;83.20;;;;;;5034968;28;20172;-59
2022/11/19 00:56:58;;;;;;;2.13;1.42;;;8.00;83.30;;;;;;5036177;28;20090;-60
2022/11/19 00:59:24;;;;;;;2.10;1.55;;;8.00;83.20;;;;;;5037592;28;20032;-59
2022/11/19 01:01:50;;;;;;;1.60;1.50;;;8.00;83.20;;;;;;5036880;28;20034;-61
2022/11/19 01:04:15;;;;;;;3.20;1.40;;;8.00;83.10;;;;;;5036223;28;20029;-60
2022/11/19 01:06:41;;;;;;;3.63;1.67;;;8.00;83.20;;;;;;5036020;28;20029;-59
2022/11/19 01:09:07;;;;;;;2.50;1.40;;;8.00;83.20;;;;;;5036586;28;20040;-60
2022/11/19 01:11:34;;;;;;;2.90;1.35;;;7.90;83.10;;;;;;5030873;28;20753;-61
2022/11/19 01:14:01;;;;;;;4.07;1.30;;;7.90;83.30;;;;;;5033742;28;20025;-62
2022/11/19 01:16:29;;;;;;;4.13;1.48;;;7.90;83.40;;;;;;5036315;28;20044;-60
2022/11/19 01:18:55;;;;;;;1.90;1.60;;;7.90;83.60;;;;;;5035292;28;20198;-61
2022/11/19 01:21:26;;;;;;;3.38;1.20;;;7.80;83.40;;;;;;5034889;28;20549;-62
2022/11/19 01:23:52;;;;;;;2.40;1.30;;;7.80;83.60;;;;;;5033563;28;20045;-61
2022/11/19 01:26:18;;;;;;;3.58;1.20;;;7.80;83.60;;;;;;5034724;28;20424;-61
2022/11/19 01:28:44;;;;;;;3.05;1.20;;;7.80;83.70;;;;;;5034245;28;20029;-61
2022/11/19 01:31:14;;;;;;;3.40;1.30;;;7.80;83.80;;;;;;5035063;28;20037;-60
2022/11/19 01:33:39;;;;;;;2.13;1.20;;;7.80;83.90;;;;;;5036252;28;20261;-60
2022/11/19 01:36:09;;;;;;;2.67;1.45;;;7.80;83.90;;;;;;5034221;28;20045;-61
2022/11/19 01:38:34;;;;;;;2.58;1.50;;;7.80;84.00;;;;;;5031162;28;20551;-60
2022/11/19 01:41:01;;;;;;;2.33;1.08;;;7.80;84.00;;;;;;5036263;28;20057;-62
2022/11/19 01:43:47;;;;;;;3.45;1.15;;;7.80;84.00;;;;;;5035303;28;20116;-61
2022/11/19 01:46:28;;;;;;;1.17;1.08;;;7.90;84.30;;;;;;5033794;28;20064;-62
2022/11/19 01:49:13;;;;;;;1.13;0.95;;;7.90;84.10;;;;;;5034909;28;20040;-60
2022/11/19 01:51:56;;;;;;;1.52;0.98;;;7.90;84.10;;;;;;5034698;28;20033;-61
2022/11/19 01:54:29;;;;;;;2.15;1.10;;;7.90;84.10;;;;;;5039100;28;20120;-61
2022/11/19 01:57:00;;;;;;;4.47;1.10;;;7.90;84.10;;;;;;5038951;28;20575;-61
2022/11/19 01:59:27;;;;;;;2.42;1.00;;;7.90;84.00;;;;;;5039243;28;20412;-59
2022/11/19 02:01:53;;;;;;;1.25;0.90;;;7.90;84.00;;;;;;5043475;28;20029;-60
2022/11/19 02:04:20;;;;;;;2.17;1.10;;;7.90;84.10;;;;;;5038802;28;20064;-60
2022/11/19 02:06:46;;;;;;;1.45;1.10;;;7.90;84.00;;;;;;5038185;28;20044;-60
2022/11/19 02:09:12;;;;;;;2.00;1.30;;;7.90;84.10;;;;;;5035559;28;20036;-60
2022/11/19 02:11:56;;;;;;;2.60;1.30;;;7.90;84.10;;;;;;5035761;28;20029;-61
2022/11/19 02:14:39;;;;;;;1.80;1.10;;;7.90;84.10;;;;;;5039331;28;20038;-61
2022/11/19 02:17:13;;;;;;;3.30;1.30;;;7.90;84.20;;;;;;5038220;28;20127;-61
2022/11/19 02:20:17;;;;;;;1.83;1.30;;;7.90;84.20;;;;;;5037788;28;20040;-60
2022/11/19 02:22:48;;;;;;;2.50;1.20;;;7.90;84.30;;;;;;5038335;28;20045;-59
2022/11/19 02:25:35;;;;;;;1.85;1.33;;;7.90;84.10;;;;;;5039115;28;20148;-61
2022/11/19 02:28:27;;;;;;;2.17;1.20;;;7.90;84.10;;;;;;5039486;28;20029;-61
2022/11/19 02:31:20;;;;;;;1.80;1.27;;;7.90;84.40;;;;;;5039332;28;20068;-61
2022/11/19 02:34:03;;;;;;;3.63;1.20;;;7.90;84.30;;;;;;5034855;28;20697;-61
2022/11/19 02:36:46;;;;;;;2.55;1.42;;;7.90;84.60;;;;;;5038713;28;20390;-61
2022/11/19 02:39:23;;;;;;;1.35;1.25;;;7.90;84.70;;;;;;5038235;28;20033;-61
2022/11/19 02:41:55;;;;;;;1.90;1.48;;;7.90;84.50;;;;;;5038187;28;20038;-61
2022/11/19 02:47:32;;;;;;;2.42;1.30;;;7.90;84.60;;;;;;5037834;28;20086;-60
2022/11/19 02:50:13;;;;;;;;;;;7.90;84.60;;;;;;5035979;28;20033;-60
2022/11/19 02:52:41;;;;;;;2.05;1.40;;;7.90;84.90;;;;;;5036330;28;19917;-60
2022/11/19 02:55:10;;;;;;;3.17;1.40;;;8.00;84.40;;;;;;5038899;28;20053;-61
2022/11/19 02:57:36;;;;;;;4.07;1.70;;;8.00;84.50;;;;;;5043636;28;20151;-61
2022/11/19 03:05:50;;;;;;;3.58;1.50;;;8.00;85.70;;;;;;5035209;28;20068;-61
2022/11/19 03:08:16;;;;;;;2.90;1.65;;;8.00;84.70;;;;;;5038735;28;20116;-61
2022/11/19 03:11:00;;;;;;;3.03;1.85;;;8.00;84.70;;;;;;5037006;28;20052;-60
2022/11/19 03:16:43;;;;;;;4.03;2.00;;;8.00;84.70;;;;;;5036354;28;20045;-61
2022/11/19 03:19:42;;;;;;;2.72;1.50;;;8.00;84.80;;;;;;5038345;28;20061;-61
2022/11/19 03:22:17;;;;;;;1.75;1.58;;;8.00;84.70;;;;;;5026596;28;20575;-60
2022/11/19 03:24:48;;;;;;;4.40;1.60;;;8.00;84.60;;;;;;5037083;28;20022;-59
2022/11/19 03:27:20;;;;;;;1.85;1.65;;;8.10;84.60;;;;;;5037276;28;20037;-61
2022/11/19 03:29:50;;;;;;;1.60;1.50;;;8.10;84.60;;;;;;5038351;28;20515;-59
2022/11/19 03:32:21;;;;;;;3.28;1.70;;;8.10;84.60;;;;;;5036331;28;20036;-61
2022/11/19 03:34:53;;;;;;;1.58;1.40;;;8.10;84.60;;;;;;5038394;28;20163;-60
2022/11/19 03:37:22;;;;;;;1.90;1.50;;;8.10;84.60;;;;;;5038187;28;20076;-60
2022/11/19 03:39:50;;;;;;;1.75;1.40;;;8.10;84.50;;;;;;5038945;28;20124;-60
2022/11/19 03:42:18;;;;;;;2.17;1.35;;;8.10;84.50;;;;;;5038526;28;20495;-61
2022/11/19 03:44:49;;;;;;;1.95;1.30;;;8.10;84.50;;;;;;5037832;28;20037;-61
2022/11/19 03:47:23;;;;;;;2.65;1.50;;;8.20;84.60;;;;;;5039147;28;20124;-61
2022/11/19 03:49:56;;;;;;;2.73;1.50;;;8.20;84.50;;;;;;5039134;28;20468;-61
2022/11/19 03:52:21;;;;;;;1.48;1.38;;;8.20;84.50;;;;;;5037696;28;20136;-59
2022/11/19 03:54:47;;;;;;;5.00;1.65;;;8.20;84.40;;;;;;5038526;28;20124;-61
2022/11/19 03:57:16;;;;;;;2.15;1.95;;;8.20;84.50;;;;;;5038646;28;20045;-59
2022/11/19 03:59:42;;;;;;;3.28;1.63;;;8.20;84.50;;;;;;5039033;28;20029;-61
2022/11/19 04:02:09;;;;;;;1.90;1.63;;;8.20;84.50;;;;;;5038166;28;20107;-60
2022/11/19 04:04:36;;;;;;;1.70;1.50;;;8.20;84.50;;;;;;5034631;28;20116;-62
2022/11/19 04:07:17;;;;;;;2.63;1.83;;;8.20;84.50;;;;;;5037178;28;20412;-60
2022/11/19 04:09:43;;;;;;;3.25;2.55;;;8.20;84.50;;;;;;5032614;28;20033;-61
2022/11/19 04:12:18;;;;;;;4.25;3.00;;;8.30;84.50;;;;;;5037000;28;20060;-61
2022/11/19 04:14:43;;;;;;;6.43;2.70;;;8.30;84.60;;;;;;5034128;28;20030;-60
2022/11/19 04:17:09;;;;;;;16.38;8.52;;;8.40;84.60;;;;;;5029919;28;21995;-60
2022/11/19 04:19:35;;;;;;;17.58;12.38;;;8.30;84.50;;;;;;5031346;28;20041;-60
2022/11/19 04:22:00;;;;;;;5.68;3.85;;;8.30;84.30;;;;;;5033058;28;20044;-61
2022/11/19 04:24:26;;;;;;;2.65;2.40;;;8.30;84.30;;;;;;5032652;28;20412;-60
2022/11/19 04:26:51;;;;;;;3.28;2.58;;;8.30;84.30;;;;;;5031734;28;20045;-60
2022/11/19 04:29:17;;;;;;;7.60;3.55;;;8.30;84.30;;;;;;5031750;28;20125;-61
2022/11/19 04:31:43;;;;;;;4.50;3.38;;;8.30;84.30;;;;;;5032872;28;20647;-59
2022/11/19 04:34:08;;;;;;;5.90;3.15;;;8.30;84.30;;;;;;5030484;28;20051;-61
2022/11/19 04:36:34;;;;;;;4.47;2.80;;;8.30;84.20;;;;;;5033789;28;20128;-60
2022/11/19 04:39:00;;;;;;;3.58;2.47;;;8.40;84.20;;;;;;5029162;28;20032;-61
2022/11/19 04:41:26;;;;;;;2.10;1.90;;;8.30;84.10;;;;;;5030312;28;20472;-61
2022/11/19 04:43:51;;;;;;;3.47;2.30;;;8.40;84.20;;;;;;5029210;28;20120;-60
2022/11/19 04:46:17;;;;;;;2.80;2.08;;;8.30;84.10;;;;;;5032156;28;20037;-61
2022/11/19 04:48:42;;;;;;;3.17;1.90;;;8.30;84.10;;;;;;5029977;28;20071;-61
2022/11/19 04:51:08;;;;;;;2.10;1.70;;;8.30;84.30;;;;;;5034553;28;20065;-61
2022/11/19 04:53:33;;;;;;;14.35;8.50;;;8.30;84.30;;;;;;5029296;28;20036;-60
2022/11/19 04:55:59;;;;;;;7.28;4.70;;;8.30;84.30;;;;;;5030416;28;20044;-61
2022/11/19 04:58:24;;;;;;;2.95;2.75;;;8.30;84.50;;;;;;5034521;28;20045;-63
2022/11/19 05:00:50;;;;;;;2.95;2.60;;;8.30;84.50;;;;;;5037546;28;20041;-61
2022/11/19 05:03:16;;;;;;;3.05;2.15;;;8.30;85.30;;;;;;5036667;28;20082;-61
2022/11/19 05:05:41;;;;;;;2.58;1.95;;;8.30;84.50;;;;;;5033393;28;20033;-61
2022/11/19 05:08:07;;;;;;;1.73;1.63;;;8.30;84.50;;;;;;5032777;28;20033;-60
2022/11/19 05:10:32;;;;;;;2.10;1.90;;;8.30;84.40;;;;;;5028936;28;20083;-61
2022/11/19 05:12:58;;;;;;;2.78;2.28;;;8.30;84.30;;;;;;5031067;28;20545;-61
2022/11/19 05:15:23;;;;;;;5.13;4.35;;;8.30;84.30;;;;;;5031121;28;20041;-60
2022/11/19 05:17:49;;;;;;;5.35;4.18;;;8.40;84.50;;;;;;5032403;28;20043;-61
2022/11/19 05:20:15;;;;;;;4.15;3.50;;;8.40;84.50;;;;;;5032204;28;20036;-60
2022/11/19 05:22:40;;;;;;;3.53;3.00;;;8.40;84.50;;;;;;5032046;28;20036;-60
2022/11/19 05:25:06;;;;;;;3.30;2.90;;;8.40;84.30;;;;;;5033550;28;20148;-60
2022/11/19 05:27:32;;;;;;;3.03;2.60;;;8.40;84.20;;;;;;5030859;28;20025;-60
2022/11/19 05:29:58;;;;;;;2.90;2.17;;;8.40;84.20;;;;;;5030426;28;20535;-60
2022/11/19 05:32:23;;;;;;;3.25;2.58;;;8.40;84.20;;;;;;5028760;28;20132;-61
2022/11/19 05:34:49;;;;;;;3.08;2.78;;;8.40;84.10;;;;;;5034077;28;20041;-61
2022/11/19 05:37:14;;;;;;;3.80;2.58;;;8.40;84.10;;;;;;5030666;28;20417;-62
2022/11/19 05:39:40;;;;;;;3.67;2.25;;;8.40;84.10;;;;;;5033986;28;20102;-60
2022/11/19 05:42:05;;;;;;;3.65;2.60;;;8.40;84.00;;;;;;5032343;28;20124;-61
2022/11/19 05:44:31;;;;;;;4.78;2.88;;;8.30;84.00;;;;;;5032411;28;20052;-61
2022/11/19 05:46:58;;;;;;;6.40;2.97;;;8.30;84.00;;;;;;5029380;28;20067;-59
2022/11/19 05:49:24;;;;;;;3.40;2.70;;;8.30;84.00;;;;;;5031547;28;20037;-59
2022/11/19 05:51:50;;;;;;;3.95;2.55;;;8.30;84.00;;;;;;5031522;28;20414;-60
2022/11/19 05:54:15;;;;;;;3.22;2.40;;;8.30;84.00;;;;;;5030107;28;20060;-61
2022/11/19 05:56:41;;;;;;;2.67;2.47;;;8.30;84.10;;;;;;5030196;28;20033;-61
2022/11/19 05:59:06;;;;;;;2.10;2.00;;;8.30;84.00;;;;;;5034158;28;20040;-60
2022/11/19 06:01:32;;;;;;;2.92;2.30;;;8.30;84.10;;;;;;5030395;28;20511;-59
2022/11/19 06:03:57;;;;;;;4.68;2.95;;;8.30;84.10;;;;;;5030077;28;20033;-61
2022/11/19 06:06:24;;;;;;;4.47;2.42;;;8.20;84.00;;;;;;5033415;28;20493;-60
2022/11/19 06:08:50;;;;;;;3.42;2.72;;;8.20;84.10;;;;;;5031298;28;20547;-61
2022/11/19 06:14:00;;;;;;;3.58;2.40;;;8.20;84.30;;;;;;5032122;28;20114;-60
2022/11/19 06:16:26;;;;;;;2.95;2.28;;;8.20;84.40;;;;;;5029562;28;20135;-61
2022/11/19 06:18:52;;;;;;;3.67;2.70;;;8.20;84.40;;;;;;5031924;28;20044;-60
2022/11/19 06:21:18;;;;;;;4.65;2.95;;;8.20;84.50;;;;;;5028226;28;20044;-59
2022/11/19 06:23:44;;;;;;;4.47;2.70;;;8.20;84.50;;;;;;5030842;28;20029;-60
2022/11/19 06:26:10;;;;;;;3.90;2.45;;;8.10;84.50;;;;;;5034630;28;20045;-60
2022/11/19 06:28:36;;;;;;;3.05;2.85;;;8.10;84.60;;;;;;5033197;28;20029;-61
2022/11/19 06:31:01;;;;;;;2.85;2.65;;;8.10;84.60;;;;;;5030847;28;20459;-62
2022/11/19 06:33:27;;;;;;;3.83;3.30;;;8.10;84.50;;;;;;5028895;28;20478;-60
2022/11/19 06:35:52;;;;;;;3.00;2.40;;;8.10;84.60;;;;;;5031835;28;20040;-60
2022/11/19 06:38:18;;;;;;;3.45;2.58;;;8.10;84.60;;;;;;5033545;28;20048;-60
2022/11/19 06:40:44;;;;;;;2.88;2.65;;;8.10;84.70;;;;;;5035256;28;20091;-61
2022/11/19 06:43:10;;;;;;;4.30;2.80;;;8.10;84.80;;;;;;5034734;28;20095;-61
2022/11/19 06:45:36;;;;;;;3.20;2.60;;;8.10;84.80;;;;;;5034082;28;20064;-61
2022/11/19 06:48:01;;;;;;;7.82;3.60;;;8.20;84.90;;;;;;5035177;28;20041;-61
2022/11/19 06:50:27;;;;;;;3.55;3.20;;;8.20;84.80;;;;;;5034798;28;20508;-59
2022/11/19 06:52:52;;;;;;;2.92;2.72;;;8.20;84.80;;;;;;5035164;28;20172;-61
2022/11/19 06:55:18;;;;;;;3.85;3.13;;;8.20;84.80;;;;;;5034387;28;20039;-62
2022/11/19 06:57:44;;;;;;;3.15;2.85;;;8.20;84.70;;;;;;5041868;28;20046;-62
2022/11/19 07:00:11;;;;;;;3.85;3.10;;;8.20;84.80;;;;;;5036238;28;20151;-60
2022/11/19 07:02:36;;;;;;;3.20;2.90;;;8.20;84.80;;;;;;5036457;28;20087;-60
2022/11/19 07:05:03;;;;;;;3.28;2.97;;;8.20;84.80;;;;;;5036689;28;20053;-61
2022/11/19 07:07:29;;;;;;;3.53;2.88;;;8.20;84.90;;;;;;5035294;28;20048;-61
2022/11/19 07:09:55;;;;;;;3.75;3.45;;;8.20;84.80;;;;;;5036027;28;20044;-60
2022/11/19 07:12:20;;;;;;;6.65;3.67;;;8.20;84.90;;;;;;5031513;28;20034;-61
2022/11/19 07:14:46;;;;;;;4.40;3.05;;;8.20;84.90;;;;;;5033480;28;20032;-60
2022/11/19 07:17:11;;;;;;;3.35;2.83;;;8.20;84.90;;;;;;5032812;28;20124;-60
2022/11/19 07:19:37;;;;;;;4.30;3.42;;;8.20;84.80;;;;;;5034914;28;20065;-61
2022/11/19 07:22:02;;;;;;;5.43;2.95;;;8.20;84.80;;;;;;5035732;28;20041;-61
2022/11/19 07:24:28;;;;;;;4.13;3.30;;;8.20;84.80;;;;;;5032930;28;20219;-61
2022/11/19 07:26:54;;;;;;;3.80;3.45;;;8.20;84.90;;;;;;5034170;28;20132;-59
2022/11/19 07:29:19;;;;;;;6.15;3.72;;;8.20;85.00;;;;;;5031307;28;20029;-59
2022/11/19 07:31:49;;;;;;;4.35;3.80;;;8.30;84.90;;;;;;5032773;28;20174;-59
2022/11/19 07:34:15;;;;;;;4.70;3.90;;;8.30;84.90;;;;;;5032598;28;20068;-61
2022/11/19 07:36:41;;;;;;;4.18;3.78;;;8.30;85.00;;;;;;5034448;28;20500;-60
2022/11/19 07:39:07;;;;;;;5.60;3.90;;;8.30;85.00;;;;;;5035476;28;20599;-62
2022/11/19 07:44:16;;;;;;;4.45;4.05;;;8.30;85.00;;;;;;5034865;28;20527;-59
2022/11/19 07:46:42;;;;;;;4.57;3.72;;;8.30;84.90;;;;;;5035792;28;20112;-62
2022/11/19 07:49:08;;;;;;;4.68;3.83;;;8.30;85.00;;;;;;5031279;28;20127;-61
2022/11/19 07:51:33;;;;;;;4.63;3.80;;;8.30;85.00;;;;;;5029403;28;20033;-62
2022/11/19 07:53:59;;;;;;;4.82;3.67;;;8.30;85.00;;;;;;5036230;28;20049;-62
2022/11/19 07:56:24;;;;;;;3.58;3.20;;;8.30;85.20;;;;;;5033308;28;20043;-62
2022/11/19 07:58:50;;;;;;;4.93;3.60;;;8.30;85.10;;;;;;5035730;28;20095;-62
2022/11/19 08:01:18;;;;;;;3.70;3.40;;;8.30;85.00;;;;;;5031374;28;20115;-60
2022/11/19 08:03:48;;;;;;;4.53;3.20;;;8.30;84.90;;;;;;5026970;28;20044;-61
2022/11/19 08:06:15;;;;;;;3.55;3.25;;;8.30;84.80;;;;;;5033088;28;20511;-58
2022/11/19 08:08:42;;;;;;;4.65;3.33;;;8.40;84.80;;;;;;5033442;28;20034;-60
2022/11/19 08:11:09;;;;;;;4.75;3.63;;;8.40;84.80;;;;;;5028918;28;20040;-62
2022/11/19 08:13:35;;;;;;;4.03;3.63;;;8.40;85.00;;;;;;5036429;28;20033;-61
2022/11/19 08:16:06;;;;;;;4.65;3.65;;;8.40;85.00;;;;;;5030467;28;20029;-61
2022/11/19 08:18:31;;;;;;;4.45;3.75;;;8.40;85.00;;;;;;5032326;28;20048;-60
2022/11/19 08:21:09;;;;;;;3.72;3.42;;;8.40;85.00;;;;;;5029385;28;20041;-60
2022/11/19 08:23:35;;;;;;;3.92;3.53;;;8.50;85.00;;;;;;5032482;28;20448;-61
2022/11/19 08:26:02;;;;;;;4.95;3.55;;;8.50;84.90;;;;;;5031694;28;20057;-61
2022/11/19 08:28:28;;;;;;;4.00;3.30;;;8.50;85.00;;;;;;5036323;28;20029;-61
2022/11/19 08:30:54;;;;;;;4.50;3.80;;;8.60;85.00;;;;;;5032055;28;20133;-60
2022/11/19 08:33:20;;;;;;;6.68;3.30;;;8.50;85.00;;;;;;5032426;28;20045;-61
2022/11/19 08:35:45;;;;;;;3.90;3.60;;;8.60;84.90;;;;;;5029713;28;20037;-61
2022/11/19 08:38:11;;;;;;;3.55;3.25;;;8.60;84.80;;;;;;5033177;28;20536;-60
2022/11/19 08:40:36;;;;;;;3.40;3.10;;;8.60;84.60;;;;;;5032160;28;20030;-62
2022/11/19 08:43:02;;;;;;;4.40;3.97;;;8.60;84.70;;;;;;5034245;28;20527;-60
2022/11/19 08:45:37;;;;;;;4.07;3.67;;;8.60;84.60;;;;;;5028532;28;20041;-60
2022/11/19 08:48:09;;;;;;;3.95;3.45;;;8.60;84.50;;;;;;5028644;28;20029;-62
2022/11/19 08:50:34;;;;;;;3.40;3.10;;;8.70;84.50;;;;;;5032337;28;20167;-61
2022/11/19 08:53:02;;;;;;;3.45;3.15;;;8.70;84.50;;;;;;5030973;28;20450;-62
2022/11/19 08:55:29;;;;;;;5.22;3.45;;;8.70;84.50;;;;;;5031323;28;20542;-62
2022/11/19 08:58:02;;;;;;;5.32;3.10;;;8.70;84.60;;;;;;5034827;28;20068;-61
2022/11/19 09:00:28;;;;;;;4.90;3.55;;;8.70;84.60;;;;;;5036634;28;20425;-61
2022/11/19 09:02:54;;;;;;;5.05;3.40;;;8.80;84.50;;;;;;5035205;28;20033;-60
2022/11/19 09:05:19;;;;;;;4.93;4.25;;;8.80;84.20;;;;;;5035357;28;20045;-61
2022/11/19 09:07:45;;;;;;;8.30;6.45;;;8.80;84.10;;;;;;5032296;28;20037;-61
2022/11/19 09:10:11;;;;;;;4.22;3.63;;;8.80;84.10;;;;;;5034756;28;20103;-62
2022/11/19 09:12:37;;;;;;;3.97;3.08;;;8.80;84.10;;;;;;5028839;28;20051;-62
2022/11/19 09:15:03;;;;;;;2.72;2.53;;;8.80;84.10;;;;;;5032918;28;20041;-60
2022/11/19 09:17:28;;;;;;;2.92;2.40;;;8.80;84.10;;;;;;5030108;28;20051;-61
2022/11/19 09:19:54;;;;;;;3.92;2.90;;;8.90;84.10;;;;;;5032322;28;20042;-62
2022/11/19 09:22:20;;;;;;;3.60;2.88;;;8.90;84.10;;;;;;5030382;28;20412;-62
2022/11/19 09:24:46;;;;;;;3.10;2.80;;;8.90;84.10;;;;;;5031398;28;20588;-62
2022/11/19 09:27:12;;;;;;;4.22;2.72;;;8.90;84.00;;;;;;5033204;28;20124;-62
2022/11/19 09:29:38;;;;;;;2.78;2.50;;;8.90;84.00;;;;;;5033331;28;20116;-62
2022/11/19 09:32:04;;;;;;;5.47;3.70;;;9.00;84.10;;;;;;5029992;28;20108;-62
2022/11/19 09:34:29;;;;;;;3.25;2.70;;;9.00;84.00;;;;;;5034219;28;20029;-62
2022/11/19 09:36:57;;;;;;;3.42;2.75;;;9.00;83.90;;;;;;5035570;28;20527;-62
2022/11/19 09:39:22;;;;;;;4.40;2.60;;;9.00;83.80;;;;;;5032911;28;20036;-62
2022/11/19 09:42:05;;;;;;;3.42;2.40;;;9.10;83.80;;;;;;5033654;28;20040;-61
2022/11/19 09:44:49;;;;;;;3.20;2.90;;;9.10;83.60;;;;;;5030728;28;20030;-62
2022/11/19 09:47:53;;;;;;;2.90;2.60;;;9.10;83.60;;;;;;5034756;28;20120;-62
2022/11/19 09:50:26;;;;;;;2.75;2.55;;;9.20;83.60;;;;;;5034999;28;20650;-62
2022/11/19 09:52:57;;;;;;;3.58;2.78;;;9.20;83.80;;;;;;5029361;28;20708;-62
2022/11/19 09:55:30;;;;;;;16.83;7.50;;;9.30;84.10;;;;;;5032779;28;20693;-62
2022/11/19 09:57:57;;;;;;;5.25;3.00;;;9.40;84.20;;;;;;5033611;28;20045;-62
2022/11/19 10:00:27;;;;;;;2.92;2.20;;;9.40;84.20;;;;;;5033931;28;20060;-62
2022/11/19 10:02:53;;;;;;;2.60;2.40;;;9.50;84.10;;;;;;5030363;28;20508;-62
2022/11/19 10:05:33;;;;;;;8.40;6.80;;;9.70;84.20;;;;;;5031463;28;20063;-61
2022/11/19 10:08:06;;;;;;;4.45;3.70;;;9.80;83.90;;;;;;5033185;28;20061;-62
2022/11/19 10:10:49;;;;;;;2.20;2.00;;;9.90;83.80;;;;;;5029839;28;20043;-62
2022/11/19 10:13:30;;;;;;;3.40;2.50;;;10.00;82.30;;;;;;5033429;28;20037;-62
2022/11/19 10:16:25;;;;;;;3.47;2.10;;;10.10;82.60;;;;;;5036262;28;20033;-62
2022/11/19 10:18:54;;;;;;;4.82;2.60;;;10.10;82.10;;;;;;5037121;28;20486;-62
2022/11/19 10:21:37;;;;;;;2.15;1.95;;;10.20;82.40;;;;;;5037357;28;20048;-62
2022/11/19 10:24:18;;;;;;;4.93;2.00;;;10.30;81.20;;;;;;5035608;28;20029;-62
2022/11/19 10:26:51;;;;;;;2.80;1.80;;;10.40;81.30;;;;;;5036616;28;20048;-60
2022/11/19 10:29:21;;;;;;;3.83;1.70;;;10.40;81.10;;;;;;5035443;28;20033;-60
2022/11/19 10:31:49;;;;;;;1.85;1.52;;;10.50;80.90;;;;;;5034912;28;20063;-61
2022/11/19 10:34:30;;;;;;;2.95;1.55;;;10.50;80.80;;;;;;5035009;28;20037;-62
2022/11/19 10:37:03;;;;;;;3.22;1.58;;;10.60;80.10;;;;;;5036701;28;20083;-62
2022/11/19 10:39:54;;;;;;;3.08;2.38;;;10.60;79.10;;;;;;5035041;28;20037;-62
2022/11/19 10:42:25;;;;;;;2.03;1.42;;;10.60;78.60;;;;;;5036580;28;20033;-62
2022/11/19 10:44:59;;;;;;;2.33;1.80;;;10.70;79.30;;;;;;5036523;28;20528;-61
2022/11/19 10:47:46;;;;;;;2.28;1.20;;;10.70;78.80;;;;;;5035481;28;20037;-62
2022/11/19 10:50:17;;;;;;;1.40;1.20;;;10.70;78.40;;;;;;5036107;28;20408;-60
2022/11/19 10:52:56;;;;;;;2.30;1.20;;;10.80;78.50;;;;;;5033202;28;20041;-61
2022/11/19 10:55:27;;;;;;;1.00;0.90;;;10.80;78.10;;;;;;5035673;28;20041;-62
2022/11/19 10:58:25;;;;;;;0.98;0.73;;;10.80;78.10;;;;;;5035777;28;20535;-61
2022/11/19 11:00:56;;;;;;;1.58;1.17;;;10.80;76.40;;;;;;5033534;28;20470;-61
2022/11/19 11:03:25;;;;;;;1.92;1.20;;;10.90;77.20;;;;;;5035257;28;20409;-61
2022/11/19 11:06:16;;;;;;;1.50;1.40;;;10.90;77.40;;;;;;5038872;28;20046;-61
2022/11/19 11:08:48;;;;;;;1.10;0.82;;;10.90;76.90;;;;;;5036923;28;20029;-62
2022/11/19 11:11:22;;;;;;;2.72;1.15;;;10.90;77.50;;;;;;5035536;28;20029;-62
2022/11/19 11:16:45;;;;;;;1.67;0.80;;;11.00;77.00;;;;;;5038192;28;20036;-61
2022/11/19 11:19:17;;;;;;;1.52;1.10;;;11.10;76.50;;;;;;5038381;28;20042;-62
2022/11/19 11:21:44;;;;;;;0.90;0.75;;;11.20;76.90;;;;;;5035750;28;20029;-61
2022/11/19 11:24:11;;;;;;;1.30;0.85;;;11.20;77.10;;;;;;5037886;28;20119;-62
2022/11/19 11:26:38;;;;;;;1.55;1.00;;;11.20;77.00;;;;;;5031589;28;20516;-61
2022/11/19 11:29:23;;;;;;;3.55;1.30;;;11.30;76.90;;;;;;5033813;28;20102;-59
2022/11/19 11:31:49;;;;;;;2.33;1.10;;;11.40;76.60;;;;;;5038003;28;20033;-61
2022/11/19 11:34:31;;;;;;;1.08;0.80;;;11.40;76.10;;;;;;5037518;28;20717;-62
2022/11/19 11:36:59;;;;;;;1.65;0.70;;;11.50;75.10;;;;;;5037121;28;20052;-62
2022/11/19 11:39:31;;;;;;;1.40;0.80;;;11.60;75.60;;;;;;5037650;28;20365;-61
2022/11/19 11:41:59;;;;;;;1.95;0.88;;;11.60;75.00;;;;;;5037255;28;20042;-61
2022/11/19 11:44:28;;;;;;;1.05;0.70;;;11.70;75.10;;;;;;5036310;28;20386;-62
2022/11/19 11:46:57;;;;;;;1.88;0.70;;;11.80;74.90;;;;;;5034081;28;20128;-61
2022/11/19 11:49:24;;;;;;;1.48;0.70;;;11.80;74.50;;;;;;5037017;28;20087;-61
2022/11/19 11:52:08;;;;;;;0.70;0.55;;;11.80;74.00;;;;;;5036593;28;20048;-61
2022/11/19 11:54:55;;;;;;;1.35;0.57;;;11.90;73.20;;;;;;5036350;28;20037;-62
2022/11/19 11:57:24;;;;;;;1.80;0.80;;;11.90;73.60;;;;;;5037744;28;20049;-62
2022/11/19 11:59:50;;;;;;;2.38;0.70;;;11.80;74.00;;;;;;5037351;28;20048;-63
2022/11/19 12:02:25;;;;;;;2.13;1.02;;;11.70;74.70;;;;;;5038591;28;20412;-61
2022/11/19 12:04:53;;;;;;;1.98;1.35;;;11.70;75.20;;;;;;5037373;28;20544;-62
2022/11/19 12:07:40;;;;;;;1.83;0.82;;;11.60;75.50;;;;;;5036442;28;20400;-63
2022/11/19 12:10:12;;;;;;;0.50;0.47;;;11.50;75.70;;;;;;5037128;28;20501;-63
2022/11/19 12:12:50;;;;;;;0.82;0.50;;;11.40;76.00;;;;;;5032841;28;20037;-63
2022/11/19 12:15:51;;;;;;;2.30;0.40;;;11.40;76.20;;;;;;5038231;28;20042;-62
2022/11/19 12:18:32;;;;;;;0.60;0.40;;;11.30;76.00;;;;;;5038281;28;20604;-62
2022/11/19 12:21:11;;;;;;;1.27;0.60;;;11.20;76.60;;;;;;5037177;28;20405;-61
2022/11/19 12:24:06;;;;;;;1.92;0.98;;;11.20;76.80;;;;;;5035426;28;20401;-62
2022/11/19 12:27:00;;;;;;;0.73;0.73;;;11.10;76.50;;;;;;5036559;28;20516;-61
2022/11/19 12:29:40;;;;;;;2.63;0.77;;;11.00;77.30;;;;;;5035918;28;20243;-61
2022/11/19 12:32:15;;;;;;;1.98;0.80;;;10.90;78.10;;;;;;5037151;28;20064;-62
2022/11/19 12:34:46;;;;;;;1.45;0.80;;;10.90;78.60;;;;;;5035481;28;20033;-60
2022/11/19 12:37:28;;;;;;;1.40;0.75;;;10.90;78.90;;;;;;5035038;28;20048;-62
2022/11/19 12:39:58;;;;;;;0.88;0.88;;;10.80;78.90;;;;;;5037574;28;20505;-62
2022/11/19 12:42:50;;;;;;;1.13;0.70;;;10.80;78.40;;;;;;5036169;28;20501;-62
2022/11/19 12:45:40;;;;;;;0.95;0.68;;;10.80;78.20;;;;;;5036299;28;20061;-62
2022/11/19 12:48:52;;;;;;;0.85;0.70;;;10.70;78.40;;;;;;5036128;28;20519;-62
2022/11/19 12:51:26;;;;;;;1.88;0.80;;;10.70;78.70;;;;;;5020880;28;20064;-61
2022/11/19 12:54:25;;;;;;;2.17;0.70;;;10.70;78.90;;;;;;5035655;28;20045;-62
2022/11/19 12:57:17;;;;;;;1.13;0.57;;;10.70;79.00;;;;;;5036167;28;20296;-62
2022/11/19 13:00:09;;;;;;;0.93;0.70;;;10.80;79.00;;;;;;5035485;28;20127;-62
2022/11/19 13:02:41;;;;;;;3.42;1.35;;;10.80;78.40;;;;;;5034765;28;20037;-62
2022/11/19 13:05:13;;;;;;;2.33;1.73;;;10.80;78.40;;;;;;5036301;28;20070;-62
2022/11/19 13:07:43;;;;;;;3.05;1.20;;;10.80;78.90;;;;;;5033856;28;20041;-62
2022/11/19 13:10:21;;;;;;;0.63;0.60;;;10.70;79.10;;;;;;5036698;28;20534;-62
2022/11/19 13:12:50;;;;;;;0.60;0.50;;;10.70;78.70;;;;;;5033426;28;20040;-60
2022/11/19 13:15:20;;;;;;;1.13;0.77;;;10.70;78.40;;;;;;5033830;28;20037;-62
2022/11/19 13:17:55;;;;;;;0.65;0.57;;;10.70;77.70;;;;;;5033637;28;20119;-60
2022/11/19 13:20:32;;;;;;;1.05;0.60;;;10.70;77.80;;;;;;5030401;28;20087;-61
2022/11/19 13:23:03;;;;;;;0.82;0.47;;;10.70;78.10;;;;;;5032445;28;20049;-62
2022/11/19 13:25:34;;;;;;;1.13;0.65;;;10.70;77.70;;;;;;5035352;28;20041;-61
2022/11/19 13:28:04;;;;;;;0.55;0.50;;;10.70;77.00;;;;;;5035705;28;20045;-62
2022/11/19 13:30:32;;;;;;;0.68;0.45;;;10.70;76.60;;;;;;5034889;28;20033;-63
2022/11/19 13:33:20;;;;;;;1.58;0.40;;;10.60;76.30;;;;;;5034186;28;20449;-61